createdAt,value
2023-07-27T00:02:10.507Z,98891.59
2023-07-27T00:04:37.043Z,98892.63
2023-07-27T00:07:04.248Z,98888.22
2023-07-27T00:09:30.749Z,98880.09
2023-07-27T00:11:57.161Z,98887.94
2023-07-27T00:14:23.629Z,98875.53
2023-07-27T00:16:50.542Z,98877.22
2023-07-27T00:19:16.938Z,98879.59
2023-07-27T00:21:45.545Z,98891.16
2023-07-27T00:24:12.036Z,98883.69
2023-07-27T00:26:38.539Z,98895.56
2023-07-27T00:29:04.939Z,98878.34
2023-07-27T00:31:31.425Z,98881.94
2023-07-27T00:33:57.953Z,98880.63
2023-07-27T00:36:25.457Z,98889.03
2023-07-27T00:38:54.081Z,98887.19
2023-07-27T00:41:20.856Z,98883.78
2023-07-27T00:43:47.413Z,98882.94
2023-07-27T00:46:14.366Z,98885.94
2023-07-27T00:48:40.893Z,98884.00
2023-07-27T00:51:07.420Z,98895.31
2023-07-27T00:53:34.307Z,98885.25
2023-07-27T00:56:01.221Z,98887.44
2023-07-27T00:58:27.735Z,98875.66
2023-07-27T01:00:55.384Z,98878.94
2023-07-27T01:03:21.993Z,98884.47
2023-07-27T01:05:48.758Z,98882.53
2023-07-27T01:08:15.318Z,98881.91
2023-07-27T01:10:42.158Z,98883.31
2023-07-27T01:13:08.634Z,98876.63
2023-07-27T01:15:35.055Z,98887.38
2023-07-27T01:18:01.837Z,98881.19
2023-07-27T01:20:28.780Z,98878.28
2023-07-27T01:22:55.379Z,98868.88
2023-07-27T01:25:21.973Z,98874.16
2023-07-27T01:27:48.647Z,98881.50
2023-07-27T01:30:15.583Z,98874.06
2023-07-27T01:32:42.207Z,98862.25
2023-07-27T01:35:09.261Z,98862.13
2023-07-27T01:37:35.872Z,98864.50
2023-07-27T01:40:02.381Z,98860.13
2023-07-27T01:42:28.852Z,98864.41
2023-07-27T01:44:55.410Z,98874.16
2023-07-27T01:47:21.984Z,98869.22
2023-07-27T01:49:48.875Z,98872.81
2023-07-27T01:52:15.383Z,98868.66
2023-07-27T01:54:42.264Z,98869.22
2023-07-27T01:57:08.746Z,98867.53
2023-07-27T01:59:35.310Z,98874.31
2023-07-27T02:02:01.846Z,98865.22
2023-07-27T02:04:28.357Z,98869.75
2023-07-27T02:06:54.915Z,98865.94
2023-07-27T02:09:21.825Z,98863.91
2023-07-27T02:11:48.667Z,98876.59
2023-07-27T02:14:15.284Z,98868.06
2023-07-27T02:16:44.167Z,98867.00
2023-07-27T02:19:10.771Z,98872.78
2023-07-27T02:21:37.189Z,98871.44
2023-07-27T02:24:03.777Z,98872.06
2023-07-27T02:26:30.489Z,98863.25
2023-07-27T02:28:57.225Z,98871.50
2023-07-27T02:31:23.728Z,98872.88
2023-07-27T02:33:50.588Z,98869.66
2023-07-27T02:36:17.178Z,98870.78
2023-07-27T02:38:43.700Z,98878.97
2023-07-27T02:41:10.538Z,98881.25
2023-07-27T02:43:39.968Z,98881.09
2023-07-27T02:46:06.484Z,98880.22
2023-07-27T02:48:34.532Z,98884.69
2023-07-27T02:51:00.997Z,98885.81
2023-07-27T02:53:27.507Z,98892.41
2023-07-27T02:55:54.188Z,98893.16
2023-07-27T02:58:20.771Z,98896.81
2023-07-27T03:00:48.233Z,98893.22
2023-07-27T03:03:15.468Z,98901.13
2023-07-27T03:05:41.987Z,98897.78
2023-07-27T03:08:08.457Z,98898.41
2023-07-27T03:10:34.975Z,98903.50
2023-07-27T03:13:03.447Z,98897.66
2023-07-27T03:15:30.029Z,98913.22
2023-07-27T03:17:56.497Z,98914.97
2023-07-27T03:20:23.240Z,98910.50
2023-07-27T03:22:50.369Z,98911.00
2023-07-27T03:25:17.390Z,98909.84
2023-07-27T03:27:47.401Z,98917.91
2023-07-27T03:30:13.837Z,98913.66
2023-07-27T03:32:40.309Z,98927.25
2023-07-27T03:35:06.863Z,98920.72
2023-07-27T03:37:34.147Z,98922.69
2023-07-27T03:40:00.823Z,98927.41
2023-07-27T03:42:28.527Z,98922.97
2023-07-27T03:44:54.995Z,98930.09
2023-07-27T03:47:21.638Z,98930.59
2023-07-27T03:49:48.109Z,98936.09
2023-07-27T03:52:14.639Z,98931.22
2023-07-27T03:54:41.363Z,98942.69
2023-07-27T03:57:08.460Z,98941.16
2023-07-27T03:59:35.041Z,98932.50
2023-07-27T04:02:01.554Z,98949.00
2023-07-27T04:04:29.202Z,98947.38
2023-07-27T04:06:55.668Z,98948.69
2023-07-27T04:09:24.359Z,98950.25
2023-07-27T04:11:50.737Z,98948.78
2023-07-27T04:14:17.242Z,98948.78
2023-07-27T04:16:46.045Z,98949.13
2023-07-27T04:19:12.754Z,98941.50
2023-07-27T04:21:39.202Z,98947.75
2023-07-27T04:24:06.325Z,98946.47
2023-07-27T04:26:33.107Z,98945.00
2023-07-27T04:29:00.190Z,98948.75
2023-07-27T04:31:26.782Z,98947.50
2023-07-27T04:33:53.518Z,98946.38
2023-07-27T04:36:19.941Z,98945.22
2023-07-27T04:38:46.493Z,98947.72
2023-07-27T04:41:12.998Z,98944.41
2023-07-27T04:43:39.492Z,98943.66
2023-07-27T04:46:05.994Z,98939.63
2023-07-27T04:48:33.016Z,98944.03
2023-07-27T04:50:59.956Z,98952.72
2023-07-27T04:53:26.541Z,98949.75
2023-07-27T04:55:53.087Z,98951.25
2023-07-27T04:58:19.925Z,98958.88
2023-07-27T05:00:46.377Z,98952.84
2023-07-27T05:03:12.813Z,98959.84
2023-07-27T05:05:39.231Z,98961.22
2023-07-27T05:08:06.710Z,98965.22
2023-07-27T05:10:33.453Z,98956.63
2023-07-27T05:13:01.631Z,98963.00
2023-07-27T05:15:28.208Z,98963.13
2023-07-27T05:17:54.785Z,98962.97
2023-07-27T05:20:21.207Z,98966.38
2023-07-27T05:22:47.827Z,98962.50
2023-07-27T05:25:14.255Z,98964.06
2023-07-27T05:27:40.715Z,98962.88
2023-07-27T05:30:07.378Z,98975.19
2023-07-27T05:32:34.111Z,98969.75
2023-07-27T05:35:01.012Z,98970.56
2023-07-27T05:37:27.988Z,98970.44
2023-07-27T05:39:54.449Z,98975.09
2023-07-27T05:42:20.939Z,98979.25
2023-07-27T05:44:48.094Z,98978.78
2023-07-27T05:47:14.461Z,98979.56
2023-07-27T05:49:42.700Z,98977.81
2023-07-27T05:52:11.742Z,98980.97
2023-07-27T05:54:39.254Z,98982.53
2023-07-27T05:57:05.710Z,98982.22
2023-07-27T05:59:32.252Z,98984.13
2023-07-27T06:01:59.128Z,98985.59
2023-07-27T06:04:28.149Z,98984.41
2023-07-27T06:06:54.884Z,98977.38
2023-07-27T06:09:21.550Z,98982.72
2023-07-27T06:11:47.966Z,98972.69
2023-07-27T06:14:16.002Z,98979.56
2023-07-27T06:16:42.625Z,98982.97
2023-07-27T06:19:09.430Z,98990.28
2023-07-27T06:21:36.305Z,98990.41
2023-07-27T06:24:02.809Z,98983.06
2023-07-27T06:26:29.744Z,98981.97
2023-07-27T06:28:56.270Z,98970.41
2023-07-27T06:31:23.113Z,98970.66
2023-07-27T06:33:50.095Z,98985.13
2023-07-27T06:36:17.059Z,98982.81
2023-07-27T06:38:43.600Z,98977.50
2023-07-27T06:41:10.282Z,98981.50
2023-07-27T06:43:36.767Z,98981.75
2023-07-27T06:46:05.721Z,98979.56
2023-07-27T06:48:32.332Z,98975.00
2023-07-27T06:50:59.157Z,98975.00
2023-07-27T06:53:25.618Z,98976.09
2023-07-27T06:55:52.258Z,98984.91
2023-07-27T06:58:18.792Z,98985.59
2023-07-27T07:00:46.815Z,98990.56
2023-07-27T07:03:13.411Z,98983.91
2023-07-27T07:05:39.977Z,98986.56
2023-07-27T07:08:06.692Z,98978.63
2023-07-27T07:10:33.987Z,98977.88
2023-07-27T07:13:00.460Z,98979.66
2023-07-27T07:15:27.253Z,98981.97
2023-07-27T07:17:54.231Z,98980.31
2023-07-27T07:20:22.457Z,98969.28
2023-07-27T07:22:48.965Z,98979.06
2023-07-27T07:25:15.943Z,98971.03
2023-07-27T07:27:43.981Z,98963.22
2023-07-27T07:30:17.669Z,98973.50
2023-07-27T07:32:44.183Z,98976.50
2023-07-27T07:35:12.968Z,98977.47
2023-07-27T07:37:39.776Z,98977.03
2023-07-27T07:40:06.631Z,98973.22
2023-07-27T07:42:33.262Z,98976.97
2023-07-27T07:45:01.145Z,98963.50
2023-07-27T07:47:28.999Z,98960.19
2023-07-27T07:49:55.434Z,98961.44
2023-07-27T07:52:23.698Z,98956.38
2023-07-27T07:54:51.053Z,98947.66
2023-07-27T07:57:18.359Z,98954.44
2023-07-27T07:59:45.043Z,98947.31
2023-07-27T08:02:13.816Z,98950.69
2023-07-27T08:04:40.504Z,98954.56
2023-07-27T08:07:07.002Z,98943.22
2023-07-27T08:09:33.481Z,98957.09
2023-07-27T08:12:00.026Z,98947.19
2023-07-27T08:14:26.499Z,98949.63
2023-07-27T08:16:53.200Z,98953.97
2023-07-27T08:19:19.991Z,98933.69
2023-07-27T08:21:48.144Z,98933.69
2023-07-27T08:24:14.904Z,98935.31
2023-07-27T08:26:41.561Z,98922.84
2023-07-27T08:29:08.309Z,98926.72
2023-07-27T08:31:35.368Z,98933.81
2023-07-27T08:34:01.990Z,98923.44
2023-07-27T08:36:28.676Z,98916.53
2023-07-27T08:38:55.218Z,98919.16
2023-07-27T08:41:21.971Z,98918.38
2023-07-27T08:43:49.944Z,98913.38
2023-07-27T08:46:16.924Z,98905.97
2023-07-27T08:48:46.071Z,98897.19
2023-07-27T08:51:12.512Z,98904.72
2023-07-27T08:53:39.565Z,98908.09
2023-07-27T08:56:06.017Z,98906.22
2023-07-27T08:58:32.526Z,98905.72
2023-07-27T09:00:59.079Z,98901.44
2023-07-27T09:03:25.683Z,98900.59
2023-07-27T09:05:52.659Z,98894.56
2023-07-27T09:08:20.093Z,98893.75
2023-07-27T09:10:46.745Z,98889.94
2023-07-27T09:13:13.163Z,98879.81
2023-07-27T09:15:39.688Z,98876.28
2023-07-27T09:18:06.443Z,98884.78
2023-07-27T09:20:32.992Z,98887.94
2023-07-27T09:23:02.043Z,98874.06
2023-07-27T09:25:28.701Z,98875.03
2023-07-27T09:27:55.311Z,98881.91
2023-07-27T09:30:21.907Z,98882.16
2023-07-27T09:32:49.735Z,98893.47
2023-07-27T09:35:16.828Z,98878.66
2023-07-27T09:37:43.266Z,98881.50
2023-07-27T09:40:09.822Z,98877.53
2023-07-27T09:42:36.401Z,98882.31
2023-07-27T09:45:03.145Z,98865.88
2023-07-27T09:47:30.383Z,98889.44
2023-07-27T09:49:56.995Z,98877.03
2023-07-27T09:52:23.498Z,98868.31
2023-07-27T09:54:50.282Z,98855.88
2023-07-27T09:57:17.112Z,98867.22
2023-07-27T09:59:45.132Z,98864.28
2023-07-27T10:02:11.723Z,98855.59
2023-07-27T10:04:41.844Z,98861.66
2023-07-27T10:07:09.265Z,98860.47
2023-07-27T10:09:35.969Z,98855.84
2023-07-27T10:12:02.465Z,98851.72
2023-07-27T10:14:32.800Z,98850.22
2023-07-27T10:16:59.595Z,98848.63
2023-07-27T10:19:26.123Z,98853.00
2023-07-27T10:21:53.542Z,98850.38
2023-07-27T10:24:20.332Z,98840.28
2023-07-27T10:26:46.940Z,98844.69
2023-07-27T10:29:14.247Z,98832.66
2023-07-27T10:31:41.049Z,98837.38
2023-07-27T10:34:23.990Z,98827.47
2023-07-27T10:36:52.271Z,98839.16
2023-07-27T10:39:20.054Z,98822.06
2023-07-27T10:41:46.493Z,98823.69
2023-07-27T10:44:12.960Z,98809.25
2023-07-27T10:46:42.684Z,98811.28
2023-07-27T10:49:10.065Z,98812.88
2023-07-27T10:51:36.582Z,98806.13
2023-07-27T10:54:03.467Z,98802.75
2023-07-27T10:56:31.314Z,98805.25
2023-07-27T10:58:58.398Z,98803.28
2023-07-27T11:01:24.971Z,98790.22
2023-07-27T11:03:51.483Z,98778.31
2023-07-27T11:06:22.445Z,98777.66
2023-07-27T11:08:49.309Z,98771.09
2023-07-27T11:11:16.057Z,98759.72
2023-07-27T11:13:42.659Z,98762.75
2023-07-27T11:16:09.569Z,98769.34
2023-07-27T11:18:35.982Z,98769.22
2023-07-27T11:21:02.578Z,98769.47
2023-07-27T11:23:29.051Z,98763.50
2023-07-27T11:25:55.789Z,98757.31
2023-07-27T11:28:22.610Z,98751.75
2023-07-27T11:30:49.089Z,98747.41
2023-07-27T11:33:15.730Z,98746.75
2023-07-27T11:35:44.812Z,98741.25
2023-07-27T11:38:11.325Z,98739.53
2023-07-27T11:40:37.763Z,98740.50
2023-07-27T11:43:04.523Z,98741.09
2023-07-27T11:45:31.071Z,98731.06
2023-07-27T11:47:57.760Z,98723.00
2023-07-27T11:50:24.277Z,98733.47
2023-07-27T11:52:50.778Z,98725.75
2023-07-27T11:55:18.700Z,98722.84
2023-07-27T11:57:45.229Z,98727.94
2023-07-27T12:00:12.104Z,98714.97
2023-07-27T12:02:42.844Z,98718.56
2023-07-27T12:05:10.746Z,98716.19
2023-07-27T12:15:05.741Z,98709.09
2023-07-27T12:22:34.748Z,98710.69
2023-07-27T12:27:30.692Z,98703.53
2023-07-27T12:29:57.213Z,98696.94
2023-07-27T12:32:23.700Z,98694.72
2023-07-27T12:39:50.154Z,98682.06
2023-07-27T12:44:46.401Z,98679.59
2023-07-27T12:47:12.951Z,98679.63
2023-07-27T12:49:39.366Z,98677.22
2023-07-27T12:52:06.061Z,98668.56
2023-07-27T12:54:32.711Z,98656.16
2023-07-27T12:56:59.395Z,98663.88
2023-07-27T12:59:26.932Z,98667.84
2023-07-27T13:01:53.505Z,98669.31
2023-07-27T13:04:22.067Z,98668.72
2023-07-27T13:06:49.370Z,98658.53
2023-07-27T13:09:16.110Z,98657.38
2023-07-27T13:11:42.616Z,98659.88
2023-07-27T13:14:10.510Z,98655.78
2023-07-27T13:16:37.020Z,98655.00
2023-07-27T13:19:04.610Z,98646.13
2023-07-27T13:21:31.119Z,98637.34
2023-07-27T13:23:57.668Z,98629.53
2023-07-27T13:26:24.248Z,98637.88
2023-07-27T13:28:50.855Z,98635.38
2023-07-27T13:31:17.337Z,98626.00
2023-07-27T13:33:44.049Z,98633.19
2023-07-27T13:36:10.682Z,98617.41
2023-07-27T13:38:38.289Z,98613.09
2023-07-27T13:41:05.077Z,98602.03
2023-07-27T13:43:31.961Z,98613.09
2023-07-27T13:45:58.499Z,98608.34
2023-07-27T13:48:25.489Z,98617.13
2023-07-27T13:50:51.992Z,98611.75
2023-07-27T13:53:18.458Z,98613.47
2023-07-27T13:55:44.991Z,98599.34
2023-07-27T13:58:11.410Z,98601.69
2023-07-27T14:00:37.917Z,98604.50
2023-07-27T14:03:04.657Z,98592.78
2023-07-27T14:05:31.468Z,98596.53
2023-07-27T14:07:58.019Z,98606.66
2023-07-27T14:10:24.571Z,98599.41
2023-07-27T14:12:52.048Z,98594.78
2023-07-27T14:15:18.850Z,98588.53
2023-07-27T14:17:45.412Z,98594.66
2023-07-27T14:20:14.463Z,98594.66
2023-07-27T14:22:41.063Z,98595.34
2023-07-27T14:25:08.376Z,98592.97
2023-07-27T14:30:04.525Z,98586.81
2023-07-27T14:32:31.286Z,98583.41
2023-07-27T14:35:03.238Z,98578.09
2023-07-27T14:37:29.839Z,98577.22
2023-07-27T14:39:56.515Z,98569.34
2023-07-27T14:42:23.285Z,98565.22
2023-07-27T14:44:50.029Z,98558.94
2023-07-27T14:47:16.606Z,98568.03
2023-07-27T14:49:43.828Z,98561.84
2023-07-27T14:52:23.357Z,98553.63
2023-07-27T14:54:49.898Z,98562.34
2023-07-27T14:57:16.946Z,98551.78
2023-07-27T14:59:56.215Z,98553.84
2023-07-27T15:04:54.880Z,98546.25
2023-07-27T15:07:21.671Z,98539.50
2023-07-27T15:09:48.204Z,98543.53
2023-07-27T15:12:14.712Z,98544.00
2023-07-27T15:14:41.524Z,98542.22
2023-07-27T15:17:08.173Z,98549.63
2023-07-27T15:19:34.888Z,98535.09
2023-07-27T15:22:01.294Z,98530.50
2023-07-27T15:24:27.869Z,98530.56
2023-07-27T15:26:55.122Z,98524.75
2023-07-27T15:29:21.779Z,98531.50
2023-07-27T15:31:48.270Z,98533.13
2023-07-27T15:34:15.842Z,98531.16
2023-07-27T15:36:42.447Z,98522.50
2023-07-27T15:39:09.077Z,98526.81
2023-07-27T15:41:36.970Z,98519.09
2023-07-27T15:44:03.826Z,98517.19
2023-07-27T15:46:30.348Z,98518.69
2023-07-27T15:48:56.997Z,98515.06
2023-07-27T15:51:23.564Z,98507.16
2023-07-27T15:53:50.142Z,98496.66
2023-07-27T15:56:16.771Z,98498.16
2023-07-27T15:58:43.246Z,98503.59
2023-07-27T16:01:09.950Z,98496.03
2023-07-27T16:03:37.371Z,98497.69
2023-07-27T16:06:04.158Z,98493.22
2023-07-27T16:08:30.704Z,98500.00
2023-07-27T16:10:57.375Z,98504.75
2023-07-27T16:13:24.441Z,98511.34
2023-07-27T16:15:51.063Z,98508.78
2023-07-27T16:18:18.285Z,98509.56
2023-07-27T16:20:45.959Z,98510.13
2023-07-27T16:23:12.589Z,98507.31
2023-07-27T16:25:39.459Z,98510.09
2023-07-27T16:28:06.117Z,98506.38
2023-07-27T16:30:35.912Z,98509.34
2023-07-27T16:33:03.163Z,98512.06
2023-07-27T16:35:29.968Z,98515.63
2023-07-27T16:37:57.860Z,98511.59
2023-07-27T16:40:24.713Z,98509.22
2023-07-27T16:42:51.504Z,98503.50
2023-07-27T16:45:18.177Z,98505.31
2023-07-27T16:47:46.198Z,98504.09
2023-07-27T16:50:12.760Z,98499.91
2023-07-27T16:52:39.315Z,98503.25
2023-07-27T16:55:05.888Z,98504.00
2023-07-27T16:57:33.276Z,98499.59
2023-07-27T17:00:00.138Z,98507.94
2023-07-27T17:02:26.966Z,98499.88
2023-07-27T17:04:53.996Z,98503.97
2023-07-27T17:07:20.886Z,98498.66
2023-07-27T17:09:50.549Z,98498.13
2023-07-27T17:12:17.987Z,98503.69
2023-07-27T17:14:45.692Z,98496.91
2023-07-27T17:17:12.922Z,98490.13
2023-07-27T17:19:40.055Z,98497.94
2023-07-27T17:22:07.244Z,98488.09
2023-07-27T17:24:34.436Z,98482.06
2023-07-27T17:27:01.313Z,98478.44
2023-07-27T17:29:29.046Z,98484.59
2023-07-27T17:31:59.231Z,98479.84
2023-07-27T17:34:26.476Z,98472.16
2023-07-27T17:36:53.487Z,98472.59
2023-07-27T17:39:20.968Z,98470.00
2023-07-27T17:41:49.165Z,98475.66
2023-07-27T17:44:17.122Z,98473.50
2023-07-27T17:46:46.440Z,98470.81
2023-07-27T17:49:13.836Z,98471.28
2023-07-27T17:51:43.812Z,98464.41
2023-07-27T17:54:11.879Z,98465.47
2023-07-27T17:56:41.204Z,98467.97
2023-07-27T17:59:08.848Z,98467.69
2023-07-27T18:01:37.646Z,98461.38
2023-07-27T18:04:05.053Z,98458.03
2023-07-27T18:06:33.684Z,98448.13
2023-07-27T18:09:00.939Z,98452.84
2023-07-27T18:11:28.627Z,98452.28
2023-07-27T18:13:56.541Z,98445.63
2023-07-27T18:16:23.819Z,98448.19
2023-07-27T18:18:51.411Z,98453.81
2023-07-27T18:21:18.626Z,98450.38
2023-07-27T18:23:47.490Z,98451.69
2023-07-27T18:26:14.743Z,98454.91
2023-07-27T18:28:41.941Z,98458.44
2023-07-27T18:31:09.282Z,98451.41
2023-07-27T18:33:36.965Z,98444.72
2023-07-27T18:36:04.183Z,98461.22
2023-07-27T18:38:31.487Z,98462.25
2023-07-27T18:41:00.026Z,98449.03
2023-07-27T18:43:27.467Z,98448.84
2023-07-27T18:45:54.776Z,98445.13
2023-07-27T18:48:23.156Z,98454.59
2023-07-27T18:50:50.425Z,98458.59
2023-07-27T18:53:17.627Z,98464.63
2023-07-27T18:55:45.873Z,98457.28
2023-07-27T18:58:14.153Z,98470.09
2023-07-27T19:00:41.449Z,98477.91
2023-07-27T19:03:13.854Z,98481.56
2023-07-27T19:05:43.502Z,98480.66
2023-07-27T19:08:13.815Z,98476.19
2023-07-27T19:10:41.527Z,98474.53
2023-07-27T19:13:08.936Z,98479.91
2023-07-27T19:15:40.378Z,98492.31
2023-07-27T19:18:07.642Z,98491.03
2023-07-27T19:20:35.085Z,98495.38
2023-07-27T19:23:02.370Z,98489.34
2023-07-27T19:25:29.640Z,98489.41
2023-07-27T19:27:57.061Z,98491.09
2023-07-27T19:30:24.778Z,98490.25
2023-07-27T19:32:52.148Z,98499.94
2023-07-27T19:35:20.473Z,98504.81
2023-07-27T19:37:49.832Z,98499.97
2023-07-27T19:40:24.405Z,98501.00
2023-07-27T19:42:52.665Z,98489.50
2023-07-27T19:45:22.197Z,98478.06
2023-07-27T19:47:49.757Z,98479.63
2023-07-27T19:50:16.905Z,98485.22
2023-07-27T19:52:47.186Z,98473.16
2023-07-27T19:55:16.648Z,98468.41
2023-07-27T19:57:43.872Z,98470.34
2023-07-27T20:00:11.180Z,98463.63
2023-07-27T20:02:38.503Z,98472.16
2023-07-27T20:05:05.822Z,98469.94
2023-07-27T20:07:34.051Z,98479.94
2023-07-27T20:10:01.567Z,98472.81
2023-07-27T20:12:28.826Z,98473.78
2023-07-27T20:14:58.296Z,98471.75
2023-07-27T20:17:25.482Z,98473.53
2023-07-27T20:19:55.329Z,98479.25
2023-07-27T20:22:22.532Z,98479.69
2023-07-27T20:24:50.215Z,98465.78
2023-07-27T20:27:18.473Z,98479.41
2023-07-27T20:29:46.745Z,98473.31
2023-07-27T20:32:14.423Z,98465.25
2023-07-27T20:34:41.730Z,98464.47
2023-07-27T20:37:09.148Z,98463.38
2023-07-27T20:39:36.619Z,98460.75
2023-07-27T20:42:07.122Z,98458.22
2023-07-27T20:44:34.307Z,98458.34
2023-07-27T20:47:01.551Z,98461.72
2023-07-27T20:49:28.696Z,98459.44
2023-07-27T20:51:55.899Z,98450.00
2023-07-27T20:54:23.309Z,98465.41
2023-07-27T20:56:51.536Z,98468.75
2023-07-27T20:59:18.726Z,98471.63
2023-07-27T21:01:45.373Z,98481.75
2023-07-27T21:04:12.028Z,98490.59
2023-07-27T21:06:38.777Z,98481.03
2023-07-27T21:09:05.184Z,98451.16
2023-07-27T21:11:32.007Z,98458.50
2023-07-27T21:13:58.417Z,98462.44
2023-07-27T21:16:25.012Z,98463.84
2023-07-27T21:18:51.565Z,98468.22
2023-07-27T21:21:18.436Z,98472.94
2023-07-27T21:23:46.499Z,98490.09
2023-07-27T21:26:13.040Z,98495.84
2023-07-27T21:28:40.325Z,98487.06
2023-07-27T21:31:07.051Z,98483.94
2023-07-27T21:33:36.012Z,98488.81
2023-07-27T21:36:02.521Z,98501.66
2023-07-27T21:38:29.351Z,98498.16
2023-07-27T21:40:58.115Z,98503.69
2023-07-27T21:43:24.912Z,98491.75
2023-07-27T21:45:51.346Z,98505.06
2023-07-27T21:48:19.901Z,98502.69
2023-07-27T21:50:46.480Z,98520.59
2023-07-27T21:53:13.045Z,98513.41
2023-07-27T21:55:39.435Z,98512.75
2023-07-27T21:58:05.926Z,98507.88
2023-07-27T22:00:32.426Z,98503.16
2023-07-27T22:02:58.898Z,98504.53
2023-07-27T22:05:25.851Z,98506.72
2023-07-27T22:07:52.516Z,98523.47
2023-07-27T22:10:19.382Z,98495.84
2023-07-27T22:12:48.466Z,98489.44
2023-07-27T22:15:14.876Z,98483.22
2023-07-27T22:17:41.303Z,98470.94
2023-07-27T22:20:11.587Z,98463.59
2023-07-27T22:22:38.261Z,98464.88
2023-07-27T22:25:04.820Z,98461.53
2023-07-27T22:27:32.447Z,98458.56
2023-07-27T22:29:59.568Z,98450.31
2023-07-27T22:32:26.206Z,98450.16
2023-07-27T22:34:52.652Z,98452.13
2023-07-27T22:37:19.129Z,98447.22
2023-07-27T22:39:45.996Z,98445.53
2023-07-27T22:42:12.492Z,98449.38
2023-07-27T22:44:39.921Z,98447.19
2023-07-27T22:47:06.640Z,98452.81
2023-07-27T22:49:35.548Z,98452.69
2023-07-27T22:52:01.975Z,98452.47
2023-07-27T22:54:28.394Z,98448.63
2023-07-27T22:56:56.502Z,98448.28
2023-07-27T22:59:22.986Z,98445.28
2023-07-27T23:01:49.509Z,98443.75
2023-07-27T23:04:16.319Z,98444.25
2023-07-27T23:06:43.209Z,98439.94
2023-07-27T23:09:10.707Z,98431.00
2023-07-27T23:11:37.253Z,98432.19
2023-07-27T23:14:03.859Z,98435.94
2023-07-27T23:16:30.506Z,98434.78
2023-07-27T23:18:59.413Z,98432.97
2023-07-27T23:21:26.199Z,98431.91
2023-07-27T23:23:52.655Z,98425.25
2023-07-27T23:26:19.119Z,98412.56
2023-07-27T23:28:45.608Z,98415.00
2023-07-27T23:31:12.476Z,98417.78
2023-07-27T23:33:38.966Z,98419.78
2023-07-27T23:36:05.506Z,98405.25
2023-07-27T23:38:32.341Z,98410.47
2023-07-27T23:40:58.838Z,98403.41
2023-07-27T23:43:25.324Z,98414.13
2023-07-27T23:45:51.750Z,98399.06
2023-07-27T23:48:18.277Z,98406.25
2023-07-27T23:50:44.818Z,98401.09
2023-07-27T23:53:11.249Z,98402.06
2023-07-27T23:55:37.773Z,98399.41
2023-07-27T23:58:04.287Z,98390.84
